Luverne, Alabama
Current Conditions -  °F | °C
As of 5:53 PM on Tuesday 25 Nov 2014 (Local Time) from KTOI Reporting Station
Overcast Overcast  
Wind Chill: 52°   Ceiling: 10000
Heat Index: 52°   Visibility: 10mi
Dew Point: 44°   Wind: 3mph
Humidity: 74%   Direction: 240°WSW
Pressure: 30.1"   Gusts: NA
Location:  31.72°N, 86.26°W
Report Text: KTOI 252353Z AUTO 24003KT 10SM BKN100 OVC120 11/07 A3010 RMK AO2 SLP193 T01110067 10139 20106 53020
Loading
Personal Weather Stations






























Interactive Weather Map New forecast layout! Learn more

10-Day Weather Forecast

Advertisements
Track Severe Weather on mobile